Time;durP1;ratioP1;P1;durP2;ratioP2;P2;SDS_P1;SDS_P2;PMS_P1;PMS_P2;Temp;Humidity;BMP_temperature;BMP_pressure;BME280_temperature;BME280_humidity;BME280_pressure;Samples;Min_cycle;Max_cycle;Signal;HPM_P1;HPM_P2
2023/06/06 00:00:19;;;;;;;21.85;8.68;;;;;;;;;;4846462;28;20120;-67
2023/06/06 00:02:45;;;;;;;13.20;8.10;;;;;;;;;;4845568;28;20052;-67
2023/06/06 00:05:14;;;;;;;16.02;7.95;;;;;;;;;;4844155;28;20036;-68
2023/06/06 00:07:39;;;;;;;17.35;8.13;;;;;;;;;;4859754;28;20082;-68
2023/06/06 00:10:05;;;;;;;21.30;8.85;;;;;;;;;;4849207;28;20156;-67
2023/06/06 00:12:33;;;;;;;16.20;8.23;;;;;;;;;;4862575;28;20538;-68
2023/06/06 00:14:59;;;;;;;17.77;8.48;;;;;;;;;;4846228;28;20144;-68
2023/06/06 00:17:25;;;;;;;15.70;8.27;;;;;;;;;;4844926;28;20042;-68
2023/06/06 00:19:53;;;;;;;17.05;8.70;;;;;;;;;;4844718;28;20073;-67
2023/06/06 00:22:22;;;;;;;19.50;8.70;;;;;;;;;;4882970;28;20102;-68
2023/06/06 00:24:48;;;;;;;18.55;8.73;;;;;;;;;;4915454;28;20085;-68
2023/06/06 00:27:13;;;;;;;20.95;8.82;;;;;;;;;;4920505;28;20047;-68
2023/06/06 00:29:38;;;;;;;16.83;9.48;;;;;;;;;;4919000;28;20055;-67
2023/06/06 00:32:06;;;;;;;14.32;8.70;;;;;;;;;;4919761;28;20095;-67
2023/06/06 00:34:31;;;;;;;18.00;9.10;;;;;;;;;;4926756;28;21087;-67
2023/06/06 00:36:57;;;;;;;14.27;8.35;;;;;;;;;;4935166;28;20065;-67
2023/06/06 00:39:22;;;;;;;15.52;8.88;;;;;;;;;;4915589;28;20040;-68
2023/06/06 00:41:48;;;;;;;15.77;9.13;;;;;;;;;;4919341;28;20207;-67
2023/06/06 00:44:16;;;;;;;19.77;9.52;;;;;;;;;;4917525;28;20055;-67
2023/06/06 00:46:42;;;;;;;18.67;9.45;;;;;;;;;;4921076;28;22303;-68
2023/06/06 00:49:12;;;;;;;19.13;9.80;;;;;;;;;;4899984;28;20146;-68
2023/06/06 00:51:38;;;;;;;17.13;9.25;;;;;;;;;;4932121;28;20031;-68
2023/06/06 00:54:06;;;;;;;16.00;9.52;;;;;;;;;;4920167;28;20047;-67
2023/06/06 00:56:33;;;;;;;19.05;9.25;;;;;;;;;;4916242;28;20138;-67
2023/06/06 00:59:01;;;;;;;16.00;9.00;;;;;;;;;;4936946;28;20046;-68
2023/06/06 01:01:28;;;;;;;15.63;9.60;;;;;;;;;;4916936;28;20043;-67
2023/06/06 01:03:56;;;;;;;17.48;9.80;;;;;;;;;;4924815;28;20444;-67
2023/06/06 01:06:22;;;;;;;16.38;9.23;;;;;;;;;;4912154;28;20039;-71
2023/06/06 01:08:48;;;;;;;17.25;9.00;;;;;;;;;;4919540;28;20043;-70
2023/06/06 01:11:16;;;;;;;15.90;9.65;;;;;;;;;;4925811;28;22291;-71
2023/06/06 01:13:51;;;;;;;17.25;9.13;;;;;;;;;;4918099;28;20523;-71
2023/06/06 01:16:18;;;;;;;16.48;9.43;;;;;;;;;;4936337;28;20091;-71
2023/06/06 01:18:45;;;;;;;18.30;9.43;;;;;;;;;;4899040;28;20803;-70
2023/06/06 01:21:11;;;;;;;21.05;9.25;;;;;;;;;;4913685;28;20043;-70
2023/06/06 01:23:36;;;;;;;19.55;10.05;;;;;;;;;;4845235;28;20060;-70
2023/06/06 01:26:05;;;;;;;18.05;10.27;;;;;;;;;;4861797;28;20633;-70
2023/06/06 01:28:31;;;;;;;20.75;11.80;;;;;;;;;;4840683;28;20517;-70
2023/06/06 01:30:59;;;;;;;21.83;10.30;;;;;;;;;;4861301;28;20096;-70
2023/06/06 01:33:44;;;;;;;17.45;10.48;;;;;;;;;;4842588;28;20049;-71
2023/06/06 01:36:22;;;;;;;19.50;11.52;;;;;;;;;;4844394;29;20045;-70
2023/06/06 01:38:50;;;;;;;23.00;11.27;;;;;;;;;;4871518;28;20155;-70
2023/06/06 01:41:20;;;;;;;20.38;11.15;;;;;;;;;;4862470;28;20285;-71
2023/06/06 01:43:45;;;;;;;23.83;12.00;;;;;;;;;;4862831;28;20071;-70
2023/06/06 01:46:11;;;;;;;17.70;10.35;;;;;;;;;;4863656;28;20509;-71
2023/06/06 01:48:37;;;;;;;21.88;11.25;;;;;;;;;;4861507;28;20059;-69
2023/06/06 01:51:02;;;;;;;21.25;11.13;;;;;;;;;;4879546;28;20071;-70
2023/06/06 01:53:28;;;;;;;21.80;11.23;;;;;;;;;;4864222;28;20183;-70
2023/06/06 01:55:54;;;;;;;22.83;11.80;;;;;;;;;;4863828;28;20115;-70
2023/06/06 01:58:20;;;;;;;20.65;11.52;;;;;;;;;;4865197;28;20040;-71
2023/06/06 03:00:31;;;;;;;19.33;10.88;;;;;;;;;;4861670;28;20607;-70
2023/06/06 03:02:57;;;;;;;18.45;10.65;;;;;;;;;;4846525;28;20053;-70
2023/06/06 03:05:24;;;;;;;20.23;10.48;;;;;;;;;;4844363;28;20048;-70
2023/06/06 03:07:49;;;;;;;18.02;10.25;;;;;;;;;;4861408;28;20079;-70
2023/06/06 03:10:15;;;;;;;21.25;10.80;;;;;;;;;;4847984;28;20041;-70
2023/06/06 03:12:40;;;;;;;17.92;9.63;;;;;;;;;;4861030;28;20044;-70
2023/06/06 03:15:06;;;;;;;19.65;10.60;;;;;;;;;;4846653;28;20168;-70
2023/06/06 03:17:31;;;;;;;17.73;10.05;;;;;;;;;;4847368;29;20038;-71
2023/06/06 03:19:56;;;;;;;19.02;10.60;;;;;;;;;;4847194;28;20044;-70
2023/06/06 03:22:21;;;;;;;21.10;10.15;;;;;;;;;;4847178;28;20210;-70
2023/06/06 03:24:49;;;;;;;17.27;10.38;;;;;;;;;;4847329;28;20041;-70
2023/06/06 03:27:15;;;;;;;20.00;10.05;;;;;;;;;;4860356;28;20833;-70
2023/06/06 03:29:40;;;;;;;18.95;10.13;;;;;;;;;;4847090;28;20033;-70
2023/06/06 03:32:06;;;;;;;16.40;9.70;;;;;;;;;;4849475;28;20043;-71
2023/06/06 03:34:34;;;;;;;21.90;10.02;;;;;;;;;;4848960;28;20155;-71
2023/06/06 03:36:59;;;;;;;15.85;9.93;;;;;;;;;;4850503;28;20036;-70
2023/06/06 03:39:25;;;;;;;17.80;10.40;;;;;;;;;;4848948;28;20029;-70
2023/06/06 03:41:53;;;;;;;17.33;9.30;;;;;;;;;;4849064;28;20047;-70
2023/06/06 03:44:18;;;;;;;17.25;9.85;;;;;;;;;;4862776;28;20044;-71
2023/06/06 03:46:43;;;;;;;20.48;9.20;;;;;;;;;;4849712;28;20064;-72
2023/06/06 03:49:13;;;;;;;14.73;9.25;;;;;;;;;;4849664;28;20040;-70
2023/06/06 03:51:41;;;;;;;21.50;9.57;;;;;;;;;;4848732;28;20047;-71
2023/06/06 03:54:06;;;;;;;25.45;9.95;;;;;;;;;;4850072;28;20033;-70
2023/06/06 03:56:32;;;;;;;18.13;10.13;;;;;;;;;;4846415;28;20028;-71
2023/06/06 03:58:57;;;;;;;16.90;8.68;;;;;;;;;;4849672;28;20052;-71
2023/06/06 04:01:23;;;;;;;22.77;9.88;;;;;;;;;;4847671;28;20079;-70
2023/06/06 04:03:49;;;;;;;17.48;9.43;;;;;;;;;;4849014;28;20084;-71
2023/06/06 04:06:14;;;;;;;16.05;9.38;;;;;;;;;;4846315;28;20098;-71
2023/06/06 04:08:40;;;;;;;20.50;9.68;;;;;;;;;;4862663;28;22352;-72
2023/06/06 04:11:05;;;;;;;16.75;8.20;;;;;;;;;;4846857;28;20914;-71
2023/06/06 04:13:31;;;;;;;15.93;8.50;;;;;;;;;;4863786;28;20144;-71
2023/06/06 04:15:56;;;;;;;16.52;9.45;;;;;;;;;;4848500;28;20051;-70
2023/06/06 04:18:21;;;;;;;19.23;9.23;;;;;;;;;;4848805;28;20036;-71
2023/06/06 04:20:46;;;;;;;14.32;8.07;;;;;;;;;;4846696;28;20087;-71
2023/06/06 04:23:12;;;;;;;17.92;8.73;;;;;;;;;;4846991;28;20048;-71
2023/06/06 04:25:37;;;;;;;19.98;8.85;;;;;;;;;;4848164;28;20032;-70
2023/06/06 04:28:02;;;;;;;17.17;8.27;;;;;;;;;;4847096;28;20064;-71
2023/06/06 04:30:29;;;;;;;16.58;9.07;;;;;;;;;;4851440;28;20931;-71
2023/06/06 04:32:57;;;;;;;14.57;7.93;;;;;;;;;;4864295;28;20036;-73
2023/06/06 04:35:22;;;;;;;19.85;7.78;;;;;;;;;;4907986;28;20052;-71
2023/06/06 04:37:47;;;;;;;15.65;8.18;;;;;;;;;;4847896;28;20812;-71
2023/06/06 04:40:13;;;;;;;13.48;7.53;;;;;;;;;;4848679;28;20045;-72
2023/06/06 04:42:39;;;;;;;16.30;7.82;;;;;;;;;;4863190;28;21019;-71
2023/06/06 04:45:06;;;;;;;16.75;7.50;;;;;;;;;;4863448;28;20046;-71
2023/06/06 04:47:31;;;;;;;13.90;7.60;;;;;;;;;;4864495;28;20047;-72
2023/06/06 04:49:57;;;;;;;13.35;7.07;;;;;;;;;;4864669;28;20044;-72
2023/06/06 04:52:23;;;;;;;14.35;7.43;;;;;;;;;;4850095;28;20685;-71
2023/06/06 04:54:51;;;;;;;14.00;7.25;;;;;;;;;;4849998;29;20040;-71
2023/06/06 04:57:17;;;;;;;15.38;7.63;;;;;;;;;;4830160;28;20052;-72
2023/06/06 04:59:51;;;;;;;16.25;7.40;;;;;;;;;;4849897;28;20037;-72
2023/06/06 05:02:20;;;;;;;15.40;6.97;;;;;;;;;;4847778;28;20051;-72
2023/06/06 05:04:47;;;;;;;15.40;7.13;;;;;;;;;;4848133;28;20143;-71
2023/06/06 05:07:12;;;;;;;14.48;7.07;;;;;;;;;;4849527;28;20037;-71
2023/06/06 05:09:38;;;;;;;12.50;6.50;;;;;;;;;;4861072;28;20095;-72
2023/06/06 05:12:03;;;;;;;12.32;6.13;;;;;;;;;;4847476;28;20056;-72
2023/06/06 05:14:28;;;;;;;13.95;6.90;;;;;;;;;;4847003;28;20785;-68
2023/06/06 05:16:54;;;;;;;13.75;6.43;;;;;;;;;;4848191;28;20120;-68
2023/06/06 05:19:20;;;;;;;14.95;6.43;;;;;;;;;;4848085;28;20067;-67
2023/06/06 05:21:46;;;;;;;10.27;5.63;;;;;;;;;;4846219;28;21149;-66
2023/06/06 05:24:12;;;;;;;12.32;5.82;;;;;;;;;;4847079;28;20140;-67
2023/06/06 05:26:39;;;;;;;12.18;6.00;;;;;;;;;;4847945;28;20040;-67
2023/06/06 05:29:05;;;;;;;11.18;5.30;;;;;;;;;;4844885;28;20124;-68
2023/06/06 05:31:30;;;;;;;13.40;5.57;;;;;;;;;;4843621;28;20454;-67
2023/06/06 05:33:55;;;;;;;10.00;5.50;;;;;;;;;;4844064;28;20777;-65
2023/06/06 05:36:21;;;;;;;10.25;5.03;;;;;;;;;;4846005;28;20072;-65
2023/06/06 05:38:48;;;;;;;10.32;5.30;;;;;;;;;;4839249;28;22093;-64
2023/06/06 05:41:13;;;;;;;8.30;5.07;;;;;;;;;;4858062;28;20036;-64
2023/06/06 05:43:41;;;;;;;12.68;5.53;;;;;;;;;;4845552;28;20092;-64
2023/06/06 05:46:11;;;;;;;11.30;5.60;;;;;;;;;;4845752;28;20052;-67
2023/06/06 05:48:37;;;;;;;11.85;4.95;;;;;;;;;;4842925;28;20051;-66
2023/06/06 05:51:02;;;;;;;10.02;5.07;;;;;;;;;;4845947;28;20041;-67
2023/06/06 05:53:28;;;;;;;10.15;5.53;;;;;;;;;;4843553;28;20557;-67
2023/06/06 05:55:53;;;;;;;9.95;5.57;;;;;;;;;;4842135;28;20067;-67
2023/06/06 05:58:18;;;;;;;10.68;5.28;;;;;;;;;;4840799;28;20043;-67
2023/06/06 06:00:46;;;;;;;10.13;4.90;;;;;;;;;;4855482;28;20044;-67
2023/06/06 06:03:14;;;;;;;12.27;5.25;;;;;;;;;;4855314;28;20052;-69
2023/06/06 06:05:40;;;;;;;9.55;5.53;;;;;;;;;;4845790;28;20040;-67
2023/06/06 06:08:06;;;;;;;10.50;5.20;;;;;;;;;;4843371;28;20794;-68
2023/06/06 06:10:32;;;;;;;13.13;5.65;;;;;;;;;;4843446;28;20144;-67
2023/06/06 06:12:58;;;;;;;11.20;5.32;;;;;;;;;;4842718;28;20098;-67
2023/06/06 06:15:23;;;;;;;12.52;5.40;;;;;;;;;;4843497;28;20037;-67
2023/06/06 06:17:48;;;;;;;12.05;5.47;;;;;;;;;;4843254;28;20213;-67
2023/06/06 06:20:17;;;;;;;12.93;5.47;;;;;;;;;;4843906;28;20743;-67
2023/06/06 06:22:43;;;;;;;9.30;5.10;;;;;;;;;;4840158;28;20687;-67
2023/06/06 06:25:12;;;;;;;13.25;5.53;;;;;;;;;;4840705;28;20048;-67
2023/06/06 06:27:38;;;;;;;14.07;5.30;;;;;;;;;;4843573;28;20035;-67
2023/06/06 06:30:09;;;;;;;11.20;4.65;;;;;;;;;;4843103;28;20045;-67
2023/06/06 06:32:35;;;;;;;10.85;4.78;;;;;;;;;;4843707;28;20106;-67
2023/06/06 06:35:03;;;;;;;11.60;4.70;;;;;;;;;;4841484;28;20037;-67
2023/06/06 06:37:33;;;;;;;11.60;4.95;;;;;;;;;;4842657;28;20068;-68
2023/06/06 06:39:59;;;;;;;11.00;4.97;;;;;;;;;;4841749;28;20037;-66
2023/06/06 06:42:25;;;;;;;9.25;4.93;;;;;;;;;;4856987;28;20870;-68
2023/06/06 06:44:50;;;;;;;9.88;4.07;;;;;;;;;;4843642;28;20033;-66
2023/06/06 06:47:15;;;;;;;11.85;4.80;;;;;;;;;;4845350;28;20044;-66
2023/06/06 06:49:41;;;;;;;12.25;5.68;;;;;;;;;;4844648;28;20037;-65
2023/06/06 06:52:16;;;;;;;9.15;4.10;;;;;;;;;;4845229;28;20044;-66
2023/06/06 06:54:57;;;;;;;9.35;4.65;;;;;;;;;;4859570;28;20070;-66
2023/06/06 06:57:26;;;;;;;12.73;4.43;;;;;;;;;;4846620;28;20045;-67
2023/06/06 06:59:52;;;;;;;13.20;4.22;;;;;;;;;;4859757;28;20207;-64
2023/06/06 07:02:18;;;;;;;9.27;4.07;;;;;;;;;;4844577;28;22437;-64
2023/06/06 07:04:46;;;;;;;8.50;4.35;;;;;;;;;;4846134;28;20095;-65
2023/06/06 07:07:16;;;;;;;12.07;4.72;;;;;;;;;;4849660;28;21679;-64
2023/06/06 07:09:41;;;;;;;8.98;4.30;;;;;;;;;;4846678;28;20036;-65
2023/06/06 07:12:07;;;;;;;10.02;4.40;;;;;;;;;;4849662;28;20755;-65
2023/06/06 07:14:33;;;;;;;13.88;4.60;;;;;;;;;;4847414;28;20040;-65
2023/06/06 07:17:00;;;;;;;8.15;4.35;;;;;;;;;;4846932;28;20104;-65
2023/06/06 07:19:26;;;;;;;8.02;3.88;;;;;;;;;;4846066;28;20792;-65
2023/06/06 07:21:56;;;;;;;9.05;4.32;;;;;;;;;;4848896;28;20031;-65
2023/06/06 07:24:25;;;;;;;9.13;3.80;;;;;;;;;;4846451;28;20671;-65
2023/06/06 07:26:54;;;;;;;9.23;4.10;;;;;;;;;;4847411;28;20036;-65
2023/06/06 07:29:21;;;;;;;9.88;4.03;;;;;;;;;;4846589;28;20048;-66
2023/06/06 07:31:51;;;;;;;10.15;4.30;;;;;;;;;;4845984;28;20720;-65
2023/06/06 07:34:16;;;;;;;15.10;4.40;;;;;;;;;;4860043;28;20045;-66
2023/06/06 07:36:42;;;;;;;10.02;3.80;;;;;;;;;;4843972;28;20040;-67
2023/06/06 07:39:08;;;;;;;9.65;3.92;;;;;;;;;;4860303;28;20044;-67
2023/06/06 07:41:33;;;;;;;11.80;4.30;;;;;;;;;;4845433;28;20033;-66
2023/06/06 07:43:59;;;;;;;8.80;4.35;;;;;;;;;;4845877;28;20052;-66
2023/06/06 07:46:25;;;;;;;13.07;4.43;;;;;;;;;;4860787;28;20041;-67
2023/06/06 07:48:50;;;;;;;8.20;4.13;;;;;;;;;;4846300;28;20139;-67
2023/06/06 07:51:15;;;;;;;11.13;4.60;;;;;;;;;;4843738;28;20580;-66
2023/06/06 07:53:43;;;;;;;7.85;3.60;;;;;;;;;;4847364;28;20129;-66
2023/06/06 07:56:09;;;;;;;6.05;3.47;;;;;;;;;;4863772;28;20044;-66
2023/06/06 07:58:40;;;;;;;10.65;4.30;;;;;;;;;;4847444;28;20047;-66
2023/06/06 08:01:07;;;;;;;8.52;3.90;;;;;;;;;;4829566;28;20146;-65
2023/06/06 08:03:34;;;;;;;7.90;3.58;;;;;;;;;;4842132;28;22347;-66
2023/06/06 08:06:02;;;;;;;10.07;3.72;;;;;;;;;;4842075;28;20410;-66
2023/06/06 08:08:27;;;;;;;7.65;3.15;;;;;;;;;;4843529;28;20789;-66
2023/06/06 08:10:53;;;;;;;15.43;4.07;;;;;;;;;;4858882;28;20041;-68
2023/06/06 08:13:21;;;;;;;9.77;4.07;;;;;;;;;;4841703;28;20044;-66
2023/06/06 08:15:46;;;;;;;7.97;3.47;;;;;;;;;;4860376;28;22262;-65
2023/06/06 08:18:14;;;;;;;9.30;3.75;;;;;;;;;;4840052;28;20033;-67
2023/06/06 08:20:40;;;;;;;8.85;3.53;;;;;;;;;;4843538;28;20033;-66
2023/06/06 08:23:05;;;;;;;8.70;4.10;;;;;;;;;;4856544;28;20057;-67
2023/06/06 08:25:30;;;;;;;9.68;3.85;;;;;;;;;;4842063;28;20140;-65
2023/06/06 08:27:58;;;;;;;9.02;3.83;;;;;;;;;;4841602;28;20041;-66
2023/06/06 08:30:25;;;;;;;10.35;4.07;;;;;;;;;;4846783;28;20492;-66
2023/06/06 08:32:50;;;;;;;11.43;3.90;;;;;;;;;;4844758;28;20037;-65
2023/06/06 08:35:17;;;;;;;6.45;3.42;;;;;;;;;;4846128;28;20128;-65
2023/06/06 08:37:43;;;;;;;7.78;3.30;;;;;;;;;;4845804;28;20872;-65
2023/06/06 08:40:11;;;;;;;8.80;3.55;;;;;;;;;;4857992;28;20136;-66
2023/06/06 08:42:40;;;;;;;7.53;3.75;;;;;;;;;;4858609;28;20044;-66
2023/06/06 08:45:06;;;;;;;8.60;4.00;;;;;;;;;;4844961;28;20065;-67
2023/06/06 08:47:32;;;;;;;10.55;3.90;;;;;;;;;;4844959;28;20056;-66
2023/06/06 08:50:01;;;;;;;8.88;3.97;;;;;;;;;;4859660;28;20067;-66
2023/06/06 08:52:27;;;;;;;12.48;3.92;;;;;;;;;;4859597;28;20148;-65
2023/06/06 08:54:56;;;;;;;9.18;3.50;;;;;;;;;;4860076;28;20037;-69
2023/06/06 08:57:22;;;;;;;8.57;3.80;;;;;;;;;;4851826;28;20183;-67
2023/06/06 08:59:48;;;;;;;8.52;3.70;;;;;;;;;;4847257;28;20894;-66
2023/06/06 09:02:13;;;;;;;9.02;3.60;;;;;;;;;;4860879;28;20045;-67
2023/06/06 09:04:42;;;;;;;8.98;3.67;;;;;;;;;;4862023;28;22783;-67
2023/06/06 09:07:11;;;;;;;8.45;3.97;;;;;;;;;;4850247;28;21121;-68
2023/06/06 09:09:37;;;;;;;6.65;3.67;;;;;;;;;;4852098;28;20676;-67
2023/06/06 09:12:02;;;;;;;7.07;3.08;;;;;;;;;;4855746;28;20024;-68
2023/06/06 09:14:27;;;;;;;8.52;3.53;;;;;;;;;;4861840;28;20146;-67
2023/06/06 09:16:53;;;;;;;10.57;3.80;;;;;;;;;;4845036;28;20063;-66
2023/06/06 09:19:23;;;;;;;9.95;3.40;;;;;;;;;;4847441;28;20033;-66
2023/06/06 09:21:48;;;;;;;7.07;3.30;;;;;;;;;;4845671;28;20881;-66
2023/06/06 09:24:16;;;;;;;6.80;3.10;;;;;;;;;;4845171;28;20071;-67
2023/06/06 09:26:43;;;;;;;10.75;3.42;;;;;;;;;;4845339;28;20033;-66
2023/06/06 09:29:11;;;;;;;7.57;2.80;;;;;;;;;;4847161;28;20825;-66
2023/06/06 09:31:40;;;;;;;8.35;3.50;;;;;;;;;;4848197;28;22509;-67
2023/06/06 09:34:09;;;;;;;12.15;3.65;;;;;;;;;;4845362;28;20039;-67
2023/06/06 09:36:39;;;;;;;5.43;2.65;;;;;;;;;;4846511;28;21143;-67
2023/06/06 09:39:08;;;;;;;6.53;2.95;;;;;;;;;;4843966;28;20569;-65
2023/06/06 09:41:45;;;;;;;7.93;3.30;;;;;;;;;;4844847;28;20130;-65
2023/06/06 09:44:20;;;;;;;6.97;3.40;;;;;;;;;;4841856;28;22403;-64
2023/06/06 09:46:46;;;;;;;6.47;2.80;;;;;;;;;;4849785;28;20046;-65
2023/06/06 09:49:12;;;;;;;7.25;3.05;;;;;;;;;;4863306;28;20044;-67
2023/06/06 09:51:44;;;;;;;8.43;3.40;;;;;;;;;;4842107;28;20540;-66
2023/06/06 09:54:10;;;;;;;8.73;3.10;;;;;;;;;;4858582;28;20036;-67
2023/06/06 09:56:39;;;;;;;6.10;3.00;;;;;;;;;;4857159;28;20051;-66
2023/06/06 09:59:06;;;;;;;8.88;3.10;;;;;;;;;;4861027;28;20645;-66
2023/06/06 10:01:32;;;;;;;8.48;3.45;;;;;;;;;;4858769;28;20738;-66
2023/06/06 10:03:58;;;;;;;7.22;3.20;;;;;;;;;;4860863;28;20048;-66
2023/06/06 10:06:28;;;;;;;7.63;3.50;;;;;;;;;;4859562;28;20040;-66
2023/06/06 10:08:57;;;;;;;6.88;3.38;;;;;;;;;;4858162;28;20051;-66
2023/06/06 10:11:22;;;;;;;8.25;3.20;;;;;;;;;;4858401;28;20044;-66
2023/06/06 10:13:49;;;;;;;6.15;3.38;;;;;;;;;;4858854;28;20752;-65
2023/06/06 10:16:14;;;;;;;7.95;3.38;;;;;;;;;;4859607;28;20087;-66
2023/06/06 10:18:41;;;;;;;11.02;3.80;;;;;;;;;;4876959;28;20064;-65
2023/06/06 10:21:09;;;;;;;8.10;4.13;;;;;;;;;;4858321;28;20079;-67
2023/06/06 10:23:34;;;;;;;8.13;3.58;;;;;;;;;;4860958;28;20044;-65
2023/06/06 10:26:00;;;;;;;8.85;3.83;;;;;;;;;;4862416;28;20040;-66
2023/06/06 10:28:31;;;;;;;6.55;3.60;;;;;;;;;;4862601;28;22400;-66
2023/06/06 10:30:57;;;;;;;9.07;3.60;;;;;;;;;;4862942;28;20159;-66
2023/06/06 10:33:44;;;;;;;8.50;4.07;;;;;;;;;;4862743;28;22089;-66
2023/06/06 10:36:16;;;;;;;10.10;4.63;;;;;;;;;;4873136;28;20044;-66
2023/06/06 10:38:44;;;;;;;;;;;;;;;;;;4859684;28;20077;-66
2023/06/06 10:41:13;;;;;;;6.88;3.47;;;;;;;;;;4857365;28;19919;-66
2023/06/06 10:43:41;;;;;;;7.93;3.85;;;;;;;;;;4859083;28;21407;-67
2023/06/06 10:46:06;;;;;;;8.70;3.85;;;;;;;;;;4860814;28;20047;-66
2023/06/06 10:48:37;;;;;;;10.02;4.22;;;;;;;;;;4860024;28;20411;-67
2023/06/06 10:51:03;;;;;;;7.82;4.07;;;;;;;;;;4863443;28;20091;-67
2023/06/06 10:53:28;;;;;;;8.93;3.97;;;;;;;;;;4874163;28;20759;-66
2023/06/06 10:55:53;;;;;;;7.97;3.78;;;;;;;;;;4860800;28;20658;-66
2023/06/06 10:58:21;;;;;;;9.00;4.35;;;;;;;;;;4860824;28;20056;-66
2023/06/06 11:00:47;;;;;;;9.50;3.90;;;;;;;;;;4862214;28;20044;-71
2023/06/06 11:03:22;;;;;;;9.27;4.22;;;;;;;;;;4844509;28;20951;-66
2023/06/06 11:06:05;;;;;;;9.35;4.10;;;;;;;;;;4860304;28;20064;-65
2023/06/06 11:08:35;;;;;;;7.40;4.10;;;;;;;;;;4862384;28;20036;-65
2023/06/06 11:11:15;;;;;;;10.30;4.20;;;;;;;;;;4860219;28;20036;-66
2023/06/06 11:14:01;;;;;;;8.63;4.28;;;;;;;;;;4875454;28;20041;-68
2023/06/06 11:16:26;;;;;;;9.25;4.32;;;;;;;;;;4861061;28;20045;-67
2023/06/06 11:18:59;;;;;;;8.32;4.05;;;;;;;;;;4861078;28;20067;-68
2023/06/06 11:21:25;;;;;;;10.68;4.43;;;;;;;;;;4875378;28;20045;-66
2023/06/06 11:23:50;;;;;;;8.75;4.60;;;;;;;;;;4859193;28;20063;-68
2023/06/06 11:26:16;;;;;;;7.68;4.15;;;;;;;;;;4860576;28;20043;-66
2023/06/06 11:28:41;;;;;;;8.50;4.47;;;;;;;;;;4857943;28;20075;-68
2023/06/06 11:31:06;;;;;;;10.25;4.53;;;;;;;;;;4859033;28;20124;-68
2023/06/06 11:33:32;;;;;;;8.43;4.13;;;;;;;;;;4873267;28;20091;-68
2023/06/06 11:36:02;;;;;;;10.18;4.43;;;;;;;;;;4857862;28;22385;-69
2023/06/06 11:38:29;;;;;;;9.00;3.70;;;;;;;;;;4859411;28;20790;-67
2023/06/06 11:40:54;;;;;;;7.72;3.60;;;;;;;;;;4858710;28;20043;-67
2023/06/06 11:43:20;;;;;;;6.45;3.85;;;;;;;;;;4858717;28;20046;-66
2023/06/06 11:46:01;;;;;;;11.80;4.35;;;;;;;;;;4858914;28;20069;-66
2023/06/06 11:48:27;;;;;;;9.47;3.60;;;;;;;;;;4859213;28;22176;-66
2023/06/06 11:50:55;;;;;;;8.10;3.90;;;;;;;;;;4874396;28;20285;-65
2023/06/06 11:53:30;;;;;;;9.02;3.53;;;;;;;;;;4862067;28;20039;-65
2023/06/06 11:55:56;;;;;;;10.85;4.20;;;;;;;;;;4874393;28;20049;-66
2023/06/06 11:58:22;;;;;;;8.18;4.07;;;;;;;;;;4861700;28;20087;-65
2023/06/06 12:00:48;;;;;;;9.90;3.97;;;;;;;;;;4863128;28;20041;-65
2023/06/06 12:03:18;;;;;;;9.45;4.28;;;;;;;;;;4861281;28;20040;-65
2023/06/06 12:05:44;;;;;;;9.63;3.80;;;;;;;;;;4875079;28;20040;-64
2023/06/06 12:08:09;;;;;;;9.90;4.30;;;;;;;;;;4860716;28;20130;-64
2023/06/06 12:10:37;;;;;;;6.88;3.80;;;;;;;;;;4857222;28;20064;-64
2023/06/06 12:13:02;;;;;;;11.65;4.00;;;;;;;;;;4861994;28;20088;-65
2023/06/06 12:15:46;;;;;;;9.07;4.18;;;;;;;;;;4861811;28;20052;-66
2023/06/06 12:18:12;;;;;;;9.48;4.45;;;;;;;;;;4863740;28;20044;-65
2023/06/06 12:20:39;;;;;;;10.68;4.20;;;;;;;;;;4862422;28;20040;-64
2023/06/06 12:23:05;;;;;;;10.65;4.18;;;;;;;;;;4878324;28;20099;-65
2023/06/06 12:25:30;;;;;;;12.70;4.32;;;;;;;;;;4876849;28;20036;-64
2023/06/06 12:28:06;;;;;;;7.45;3.50;;;;;;;;;;4861549;28;20788;-65
2023/06/06 12:30:34;;;;;;;8.93;4.10;;;;;;;;;;4863097;28;20041;-65
2023/06/06 12:33:03;;;;;;;6.85;4.00;;;;;;;;;;4862670;28;20040;-65
2023/06/06 12:35:28;;;;;;;10.07;4.30;;;;;;;;;;4874945;28;20075;-65
2023/06/06 12:37:55;;;;;;;11.65;4.88;;;;;;;;;;4861770;28;20161;-65
2023/06/06 12:40:20;;;;;;;7.45;3.67;;;;;;;;;;4861654;28;20060;-65
2023/06/06 12:42:54;;;;;;;10.73;4.20;;;;;;;;;;4861966;28;20048;-64
2023/06/06 12:45:23;;;;;;;8.40;4.10;;;;;;;;;;4878227;28;20041;-63
2023/06/06 12:47:52;;;;;;;11.77;4.68;;;;;;;;;;4862558;28;20803;-66
2023/06/06 12:50:18;;;;;;;9.23;4.30;;;;;;;;;;4864076;28;20083;-66
2023/06/06 12:52:43;;;;;;;10.68;4.85;;;;;;;;;;4862454;28;20522;-66
2023/06/06 12:55:09;;;;;;;11.32;4.95;;;;;;;;;;4860325;28;20051;-64
2023/06/06 12:57:34;;;;;;;11.13;5.20;;;;;;;;;;4860410;28;20052;-65
2023/06/06 13:00:05;;;;;;;11.40;4.47;;;;;;;;;;4876720;28;20044;-65
2023/06/06 13:02:33;;;;;;;11.65;5.05;;;;;;;;;;4876989;28;20092;-66
2023/06/06 13:04:58;;;;;;;8.52;4.50;;;;;;;;;;4860770;28;20541;-64
2023/06/06 13:07:24;;;;;;;11.55;4.82;;;;;;;;;;4926965;28;20056;-64
2023/06/06 13:09:54;;;;;;;9.68;4.72;;;;;;;;;;4861724;28;20143;-65
2023/06/06 13:12:19;;;;;;;9.77;4.80;;;;;;;;;;4878512;28;20029;-66
2023/06/06 13:14:44;;;;;;;7.72;4.93;;;;;;;;;;4862233;29;20044;-64
2023/06/06 13:17:10;;;;;;;7.35;4.18;;;;;;;;;;4876711;28;20032;-65
2023/06/06 13:19:38;;;;;;;7.60;4.38;;;;;;;;;;4863132;28;20055;-64
2023/06/06 13:22:03;;;;;;;9.50;4.88;;;;;;;;;;4931595;28;20056;-62
2023/06/06 13:24:29;;;;;;;11.35;4.97;;;;;;;;;;4864392;28;20553;-65
2023/06/06 13:26:54;;;;;;;10.77;4.68;;;;;;;;;;4863641;28;20047;-65
2023/06/06 13:29:19;;;;;;;8.63;4.43;;;;;;;;;;4858998;28;20120;-65
2023/06/06 13:31:45;;;;;;;12.65;5.47;;;;;;;;;;4862582;28;20043;-64
2023/06/06 13:34:12;;;;;;;13.85;5.13;;;;;;;;;;4862799;28;20179;-65
2023/06/06 13:36:38;;;;;;;6.45;4.50;;;;;;;;;;4861846;28;20045;-61
2023/06/06 13:39:04;;;;;;;6.80;4.43;;;;;;;;;;4876186;28;20041;-63
2023/06/06 13:41:32;;;;;;;11.20;4.47;;;;;;;;;;4857372;28;20041;-63
2023/06/06 13:44:00;;;;;;;9.45;4.63;;;;;;;;;;4860815;28;20088;-65
2023/06/06 13:46:26;;;;;;;9.10;4.35;;;;;;;;;;4859168;28;20052;-63
2023/06/06 13:48:53;;;;;;;7.32;4.40;;;;;;;;;;4874534;28;20071;-62
2023/06/06 13:51:21;;;;;;;7.80;4.32;;;;;;;;;;4860592;28;20103;-64
2023/06/06 13:53:46;;;;;;;7.55;4.82;;;;;;;;;;4860767;28;20389;-65
2023/06/06 13:56:11;;;;;;;9.77;4.65;;;;;;;;;;4873529;28;20044;-70
2023/06/06 13:58:50;;;;;;;9.18;4.40;;;;;;;;;;4873396;28;20040;-63
2023/06/06 14:01:17;;;;;;;8.20;4.70;;;;;;;;;;4859840;28;20067;-64
2023/06/06 14:03:52;;;;;;;8.27;4.40;;;;;;;;;;4876033;28;20110;-64
2023/06/06 14:06:20;;;;;;;10.55;4.30;;;;;;;;;;4861080;28;20053;-63
2023/06/06 14:08:45;;;;;;;12.05;4.60;;;;;;;;;;4861320;28;20130;-64
2023/06/06 14:11:13;;;;;;;10.38;4.45;;;;;;;;;;4861357;28;20037;-65
2023/06/06 14:13:41;;;;;;;12.43;4.65;;;;;;;;;;4861018;28;20036;-66
2023/06/06 14:16:07;;;;;;;8.80;4.45;;;;;;;;;;4861934;28;20048;-65
2023/06/06 14:18:35;;;;;;;8.20;3.97;;;;;;;;;;4877444;28;20184;-64
2023/06/06 14:23:47;;;;;;;9.90;4.35;;;;;;;;;;4862101;28;20571;-64
2023/06/06 14:26:13;;;;;;;9.13;4.63;;;;;;;;;;4861207;28;20049;-64
2023/06/06 14:28:40;;;;;;;11.90;4.55;;;;;;;;;;4860212;28;20083;-65
2023/06/06 14:31:08;;;;;;;10.07;4.88;;;;;;;;;;4860184;28;20048;-65
2023/06/06 14:33:33;;;;;;;9.88;4.72;;;;;;;;;;4857873;28;20033;-65
2023/06/06 14:35:59;;;;;;;9.90;4.65;;;;;;;;;;4859141;28;20052;-65
2023/06/06 14:38:25;;;;;;;11.18;4.57;;;;;;;;;;4859602;28;20028;-64
2023/06/06 14:40:50;;;;;;;10.27;5.00;;;;;;;;;;4875684;28;20045;-64
2023/06/06 14:43:15;;;;;;;11.18;4.63;;;;;;;;;;4860893;28;20490;-64
2023/06/06 14:45:41;;;;;;;9.65;4.82;;;;;;;;;;4858378;28;22564;-64
2023/06/06 14:48:06;;;;;;;10.82;5.15;;;;;;;;;;4861808;28;20048;-64
2023/06/06 14:50:31;;;;;;;13.23;5.25;;;;;;;;;;4875175;28;20047;-64
2023/06/06 14:52:57;;;;;;;10.65;4.82;;;;;;;;;;4860674;28;20095;-64
2023/06/06 14:55:22;;;;;;;14.15;5.43;;;;;;;;;;4859943;28;20041;-64
2023/06/06 14:57:47;;;;;;;9.30;5.03;;;;;;;;;;4857806;28;20044;-64
2023/06/06 15:00:13;;;;;;;9.35;4.70;;;;;;;;;;4859400;28;20041;-64
2023/06/06 15:02:38;;;;;;;11.30;4.50;;;;;;;;;;4858187;28;20064;-63
2023/06/06 15:05:06;;;;;;;8.68;4.72;;;;;;;;;;4858607;28;20090;-64
2023/06/06 15:07:31;;;;;;;13.80;5.40;;;;;;;;;;4857451;28;20057;-63
2023/06/06 15:09:57;;;;;;;10.43;4.78;;;;;;;;;;4859065;28;20061;-63
2023/06/06 15:12:22;;;;;;;9.65;4.50;;;;;;;;;;4857266;28;20854;-64
2023/06/06 15:14:47;;;;;;;10.68;4.32;;;;;;;;;;4859035;28;20037;-63
2023/06/06 15:17:13;;;;;;;11.90;4.53;;;;;;;;;;4857864;28;20847;-63
2023/06/06 15:19:43;;;;;;;11.35;4.28;;;;;;;;;;4857321;28;20072;-63
2023/06/06 15:22:08;;;;;;;10.07;4.63;;;;;;;;;;4857308;28;20056;-64
2023/06/06 15:24:34;;;;;;;10.85;4.22;;;;;;;;;;4859732;28;21223;-64
2023/06/06 15:27:00;;;;;;;9.32;4.40;;;;;;;;;;4860093;28;20054;-65
2023/06/06 15:29:28;;;;;;;9.90;4.20;;;;;;;;;;4850237;29;20048;-64
2023/06/06 15:31:55;;;;;;;8.68;4.22;;;;;;;;;;4877317;28;20037;-64
2023/06/06 15:34:20;;;;;;;10.00;4.03;;;;;;;;;;4862741;28;21023;-65